General Aviation Weather

Text Reports

Enter one or more of the following location identifiers separated by a space:

Zip Code, Four-Character ICAO or Three-Character IATA airport codes.

METAR - Aviation Routine Weather Report
KWAL - Wallops Island, Virginia
Updated at 4:54 PM GMT on August 29, 2015 (12:54 PM EDT):
METAR KWAL 291654Z AUTO 14008KT 10SM CLR 27/16 A3022 RMK AO2 SLP229 T02720156
TAF - Terminal Area Forecast
KWAL - Wallops Island, Virginia
Updated at 4:54 PM GMT on August 29, 2015 (12:54 PM EDT):
No TAF is currently available for this location.
Decoded:
No decoded TAF is available.
PIREP - Pilot Weather Report
KWAL - Wallops Island, Virginia
Updated at 4:54 PM GMT on August 29, 2015 (12:54 PM EDT):
No PIREP is currently available for this location.
AIRMET - Airmens Meteorological Information
KWAL - Wallops Island, Virginia
Updated at 4:54 PM GMT on August 29, 2015 (12:54 PM EDT):
No AIRMET is currently available for this location.
SIGMET - Significant Meteorological Information
KWAL - Wallops Island, Virginia
Updated at 4:54 PM GMT on August 29, 2015 (12:54 PM EDT):
No SIGMET is currently available for this location.
NOTAM - Notice to Airmen
KWAL - Wallops Island, Virginia
Updated at 4:54 PM GMT on August 29, 2015 (12:54 PM EDT):
No NOTAM is currently available for this location.
Forecast Area
KWAL - Wallops Island, Virginia
Updated at 4:54 PM GMT on August 29, 2015 (12:54 PM EDT):
No NOTAM is currently available for this location.
Aviation Weather Maps